createdAt,value
2019-01-18T00:00:02.091Z,34.3
2019-01-18T00:00:52.081Z,34.3
2019-01-18T00:01:42.684Z,34.2
2019-01-18T00:02:31.616Z,34.1
2019-01-18T00:03:37.496Z,34.1
2019-01-18T00:04:13.147Z,34
2019-01-18T00:05:02.791Z,34
2019-01-18T00:05:52.976Z,33.9
2019-01-18T00:06:42.734Z,33.9
2019-01-18T00:07:33.039Z,33.9
2019-01-18T00:08:22.651Z,33.8
2019-01-18T00:09:11.808Z,33.8
2019-01-18T00:10:02.495Z,33.7
2019-01-18T00:10:53.003Z,33.6
2019-01-18T00:11:42.518Z,33.6
2019-01-18T00:12:33.673Z,33.5
2019-01-18T00:13:22.343Z,33.4
2019-01-18T00:14:13.248Z,33.4
2019-01-18T00:15:03.645Z,33.4
2019-01-18T00:15:54.485Z,33.3
2019-01-18T00:16:42.842Z,33.3
2019-01-18T00:17:32.908Z,33.2
2019-01-18T00:18:23.522Z,33.2
2019-01-18T00:19:13.020Z,33.1
2019-01-18T00:20:04.522Z,33.1
2019-01-18T00:20:53.147Z,33.1
2019-01-18T00:21:43.527Z,33
2019-01-18T00:22:34.347Z,32.9
2019-01-18T00:23:24.130Z,32.9
2019-01-18T00:24:14.737Z,32.8
2019-01-18T00:25:04.831Z,32.8
2019-01-18T00:25:53.809Z,32.7
2019-01-18T00:26:44.654Z,32.7
2019-01-18T00:27:34.727Z,32.6
2019-01-18T00:28:24.369Z,32.6
2019-01-18T00:29:13.802Z,32.5
2019-01-18T00:30:04.128Z,32.4
2019-01-18T00:30:54.477Z,32.4
2019-01-18T00:31:43.948Z,32.4
2019-01-18T00:32:34.326Z,32.3
2019-01-18T00:33:24.394Z,32.3
2019-01-18T00:34:14.675Z,32.3
2019-01-18T00:35:05.038Z,32.2
2019-01-18T00:35:54.574Z,32.1
2019-01-18T00:36:44.316Z,32.1
2019-01-18T00:37:34.359Z,32
2019-01-18T00:38:24.734Z,31.9
2019-01-18T00:39:15.356Z,31.9
2019-01-18T00:40:05.106Z,31.9
2019-01-18T00:40:54.824Z,31.8
2019-01-18T03:08:47.834Z,40.8
2019-01-18T03:09:36.585Z,41.1
2019-01-18T03:10:28.298Z,42.1
2019-01-18T03:11:18.017Z,43.6
2019-01-18T03:12:07.597Z,44
2019-01-18T03:12:58.388Z,43.8
2019-01-18T03:13:47.633Z,43.3
2019-01-18T03:14:38.478Z,42.8
2019-01-18T03:15:28.316Z,42.1
2019-01-18T03:16:17.273Z,41.5
2019-01-18T03:17:07.382Z,40.8
2019-01-18T03:17:58.240Z,40.1
2019-01-18T03:18:48.334Z,39.4
2019-01-18T03:19:39.159Z,39
2019-01-18T03:20:28.663Z,38.8
2019-01-18T03:21:18.946Z,38.6
2019-01-18T03:22:22.329Z,38.6
2019-01-18T03:22:57.764Z,38.8
2019-01-18T03:23:49.126Z,38.9
2019-01-18T03:24:38.759Z,39
2019-01-18T03:25:28.967Z,39.2
2019-01-18T03:26:18.790Z,39.4
2019-01-18T03:27:09.392Z,39.6
2019-01-18T03:27:59.214Z,39.8
2019-01-18T03:28:49.309Z,39.9
2019-01-18T03:29:39.308Z,40.1
2019-01-18T03:30:30.994Z,40.3
2019-01-18T03:31:19.912Z,40.4
2019-01-18T03:32:09.666Z,40.6
2019-01-18T03:33:00.240Z,40.8
2019-01-18T03:33:48.555Z,42.5
2019-01-18T03:34:39.630Z,43.9
2019-01-18T03:35:29.714Z,44.6
2019-01-18T03:36:19.235Z,44.7
2019-01-18T03:37:09.083Z,44.6
2019-01-18T03:37:59.918Z,44.3
2019-01-18T03:38:49.930Z,43.7
2019-01-18T03:39:40.057Z,43.1
2019-01-18T03:40:30.065Z,42.4
2019-01-18T03:41:19.325Z,41.8
2019-01-18T03:42:09.395Z,41.2
2019-01-18T03:43:00.102Z,40.7
2019-01-18T03:43:49.922Z,40.4
2019-01-18T03:44:39.015Z,40.2
2019-01-18T03:45:29.860Z,40.1
2019-01-18T03:46:20.149Z,40.2
2019-01-18T03:47:09.984Z,40.3
2019-01-18T03:47:59.990Z,40.3
2019-01-18T03:48:49.749Z,40.4
2019-01-18T03:49:40.640Z,40.6
2019-01-18T03:50:30.691Z,40.8
2019-01-18T03:51:20.455Z,40.9
2019-01-18T03:52:11.070Z,41.1
2019-01-18T03:53:01.685Z,41.2
2019-01-18T03:53:50.569Z,41.4
2019-01-18T03:54:41.075Z,43.1
2019-01-18T03:55:31.319Z,44.1
2019-01-18T03:56:20.821Z,44.3
2019-01-18T03:57:11.411Z,43.9
2019-01-18T03:58:01.182Z,43.4
2019-01-18T03:58:51.520Z,42.9
2019-01-18T03:59:40.780Z,42.3
2019-01-18T04:00:35.779Z,41.6
2019-01-18T04:01:21.771Z,40.9
2019-01-18T04:02:10.369Z,40.3
2019-01-18T04:03:01.669Z,39.8
2019-01-18T04:03:51.467Z,39.4
2019-01-18T04:04:41.163Z,39.1
2019-01-18T04:05:31.983Z,39
2019-01-18T04:06:22.329Z,39
2019-01-18T04:07:12.375Z,39.1
2019-01-18T04:08:02.127Z,39.3
2019-01-18T04:08:52.864Z,39.4
2019-01-18T04:09:43.051Z,39.6
2019-01-18T04:10:32.053Z,39.8
2019-01-18T04:11:22.603Z,39.9
2019-01-18T04:12:12.481Z,40.1
2019-01-18T04:13:01.936Z,40.3
2019-01-18T04:13:51.491Z,40.4
2019-01-18T04:14:42.052Z,40.6
2019-01-18T04:15:30.826Z,40.7
2019-01-18T04:16:22.218Z,41.8
2019-01-18T04:17:12.293Z,43.6
2019-01-18T04:18:01.576Z,44.5
2019-01-18T04:18:52.672Z,44.8
2019-01-18T04:19:43.172Z,44.6
2019-01-18T04:20:32.687Z,44.3
2019-01-18T04:21:23.293Z,43.8
2019-01-18T04:22:13.637Z,43.2
2019-01-18T04:23:03.454Z,42.5
2019-01-18T04:23:53.296Z,41.8
2019-01-18T04:24:42.977Z,41.1
2019-01-18T04:25:32.888Z,40.6
2019-01-18T04:26:23.937Z,40.2
2019-01-18T04:27:13.665Z,39.9
2019-01-18T04:28:03.225Z,39.8
2019-01-18T04:28:53.606Z,39.8
2019-01-18T04:29:42.810Z,39.9
2019-01-18T04:30:41.769Z,40.1
2019-01-18T04:31:23.987Z,40.3
2019-01-18T04:32:13.769Z,40.4
2019-01-18T04:33:04.155Z,40.6
2019-01-18T04:33:54.195Z,40.8
2019-01-18T04:34:44.204Z,41
2019-01-18T04:35:34.626Z,42.1
2019-01-18T04:36:24.706Z,43.7
2019-01-18T04:37:14.641Z,44.3
2019-01-18T04:38:04.234Z,44.3
2019-01-18T04:38:54.546Z,44
2019-01-18T04:39:44.012Z,43.5
2019-01-18T04:40:34.461Z,43
2019-01-18T04:41:24.707Z,42.4
2019-01-18T04:42:14.439Z,41.7
2019-01-18T04:43:03.691Z,41
2019-01-18T04:43:55.502Z,40.4
2019-01-18T04:44:44.926Z,39.9
2019-01-18T04:45:34.652Z,39.6
2019-01-18T04:46:25.006Z,39.4
2019-01-18T04:47:14.522Z,39.3
2019-01-18T04:48:04.278Z,39.3
2019-01-18T04:48:54.608Z,39.2
2019-01-18T04:49:44.720Z,38.9
2019-01-18T04:50:35.268Z,38.9
2019-01-18T04:51:24.783Z,39.1
2019-01-18T04:52:14.593Z,39.3
2019-01-18T04:53:04.886Z,39.6
2019-01-18T04:53:54.390Z,39.8
2019-01-18T04:54:44.766Z,40.1
2019-01-18T04:55:50.275Z,40.3
2019-01-18T04:56:24.295Z,41.3
2019-01-18T04:57:30.655Z,42.8
2019-01-18T04:58:05.015Z,44.1
2019-01-18T04:58:55.550Z,44.3
2019-01-18T04:59:45.920Z,44.3
2019-01-18T05:00:43.882Z,43.9
2019-01-18T05:01:26.329Z,43.4
2019-01-18T05:02:16.096Z,42.9
2019-01-18T05:03:06.146Z,42.3
2019-01-18T05:03:56.782Z,41.6
2019-01-18T05:04:45.765Z,40.9
2019-01-18T05:05:35.240Z,40.3
2019-01-18T05:06:25.002Z,39.9
2019-01-18T05:07:16.418Z,39.6
2019-01-18T05:08:05.925Z,39.4
2019-01-18T05:08:56.281Z,39.3
2019-01-18T05:09:45.719Z,39.4
2019-01-18T05:10:36.354Z,39.5
2019-01-18T05:11:27.232Z,39.6
2019-01-18T05:12:16.250Z,39.8
2019-01-18T05:13:07.426Z,39.9
2019-01-18T05:13:56.690Z,40.1
2019-01-18T05:14:46.384Z,40.2
2019-01-18T05:15:35.948Z,40.4
2019-01-18T05:16:27.640Z,40.4
2019-01-18T05:17:17.403Z,40.6
2019-01-18T05:18:07.254Z,40.8
2019-01-18T05:18:56.411Z,40.9
2019-01-18T05:19:47.934Z,42.9
2019-01-18T05:20:37.069Z,44.1
2019-01-18T05:21:27.396Z,44.4
2019-01-18T05:22:17.444Z,44.2
2019-01-18T05:23:07.513Z,43.9
2019-01-18T05:23:56.968Z,43.3
2019-01-18T05:24:54.477Z,42.8
2019-01-18T05:25:36.564Z,42
2019-01-18T05:26:27.206Z,41.4
2019-01-18T05:27:17.220Z,40.7
2019-01-18T05:28:07.343Z,40.1
2019-01-18T05:28:57.348Z,39.6
2019-01-18T05:29:45.748Z,39.3
2019-01-18T05:30:38.071Z,39.1
2019-01-18T05:31:27.763Z,39.1
2019-01-18T05:32:16.798Z,39.3
2019-01-18T05:33:07.729Z,39.3
2019-01-18T05:33:57.448Z,39.5
2019-01-18T05:34:47.553Z,39.6
2019-01-18T05:35:38.461Z,39.8
2019-01-18T05:36:28.107Z,39.9
2019-01-18T05:37:17.106Z,40.1
2019-01-18T05:38:08.313Z,40.3
2019-01-18T05:38:58.116Z,40.5
2019-01-18T05:39:47.827Z,40.6
2019-01-18T05:40:37.096Z,42.3
2019-01-18T05:41:28.517Z,43.8
2019-01-18T05:42:18.770Z,44.4
2019-01-18T05:43:09.116Z,44.4
2019-01-18T05:43:58.685Z,44.1
2019-01-18T05:44:48.887Z,43.7
2019-01-18T05:45:39.055Z,43.1
2019-01-18T05:46:28.065Z,42.5
2019-01-18T05:47:18.610Z,41.8
2019-01-18T05:48:08.613Z,41.1
2019-01-18T05:48:59.229Z,40.5
2019-01-18T05:49:49.322Z,39.9
2019-01-18T05:50:37.510Z,39.6
2019-01-18T05:51:28.314Z,39.3
2019-01-18T05:52:19.504Z,39.3
2019-01-18T05:53:09.505Z,39.3
2019-01-18T05:54:00.066Z,39.4
2019-01-18T05:54:49.062Z,39.6
2019-01-18T05:55:40.276Z,39.8
2019-01-18T05:56:29.446Z,39.9
2019-01-18T05:57:19.237Z,40.1
2019-01-18T05:58:09.033Z,40.3
2019-01-18T05:58:59.316Z,40.4
2019-01-18T05:59:49.959Z,40.6
2019-01-18T06:00:40.032Z,40.7
2019-01-18T06:01:32.087Z,40.9
2019-01-18T06:02:20.110Z,41.8
2019-01-18T06:03:10.451Z,43.5
2019-01-18T06:03:59.993Z,44.3
2019-01-18T06:06:48.276Z,43.7
2019-01-18T06:07:37.524Z,43.1
2019-01-18T06:08:28.536Z,42.4
2019-01-18T06:09:18.746Z,41.8
2019-01-18T06:10:08.791Z,41.1
2019-01-18T06:10:58.811Z,40.4
2019-01-18T06:11:48.591Z,39.9
2019-01-18T06:12:38.991Z,39.6
2019-01-18T06:13:28.996Z,39.5
2019-01-18T06:14:18.208Z,39.5
2019-01-18T06:15:08.628Z,39.5
2019-01-18T06:15:58.954Z,39.6
2019-01-18T06:16:48.948Z,39.8
2019-01-18T06:17:39.578Z,39.9
2019-01-18T06:18:28.545Z,40.1
2019-01-18T06:19:18.543Z,40.3
2019-01-18T06:20:08.786Z,40.4
2019-01-18T06:20:59.450Z,40.6
2019-01-18T06:21:49.832Z,40.7
2019-01-18T06:22:39.895Z,40.9
2019-01-18T06:23:29.740Z,41.8
2019-01-18T06:24:18.958Z,43.5
2019-01-18T06:25:10.120Z,44.3
2019-01-18T06:25:59.923Z,44.4
2019-01-18T06:26:50.268Z,44.1
2019-01-18T06:27:39.821Z,43.8
2019-01-18T06:28:29.730Z,43.2
2019-01-18T06:29:20.022Z,42.6
2019-01-18T06:30:09.857Z,41.9
2019-01-18T06:31:07.077Z,41.2
2019-01-18T06:31:50.219Z,40.4
2019-01-18T06:32:39.964Z,40
2019-01-18T06:33:31.704Z,39.6
2019-01-18T06:34:20.503Z,39.3
2019-01-18T06:35:10.787Z,39.3
2019-01-18T06:36:00.260Z,39.3
2019-01-18T06:36:49.614Z,39.3
2019-01-18T06:37:40.153Z,39.5
2019-01-18T06:38:30.925Z,39.6
2019-01-18T06:39:20.991Z,39.8
2019-01-18T06:40:10.837Z,39.9
2019-01-18T06:41:00.816Z,40.1
2019-01-18T06:41:50.626Z,40.3
2019-01-18T06:42:40.389Z,40.5
2019-01-18T06:43:31.266Z,40.6
2019-01-18T06:44:21.341Z,40.8
2019-01-18T06:45:10.826Z,42.8
2019-01-18T06:46:01.158Z,43.9
2019-01-18T06:46:50.213Z,44.3
2019-01-18T06:47:41.322Z,44.1
2019-01-18T06:48:31.088Z,43.8
2019-01-18T06:49:21.381Z,43.3
2019-01-18T06:50:11.225Z,42.7
2019-01-18T06:51:01.751Z,42.1
2019-01-18T06:51:51.296Z,41.3
2019-01-18T06:52:41.661Z,40.6
2019-01-18T06:53:31.376Z,40.1
2019-01-18T06:54:21.718Z,39.6
2019-01-18T06:55:11.251Z,39.3
2019-01-18T06:56:01.611Z,39.1
2019-01-18T06:56:51.625Z,39
2019-01-18T06:57:42.021Z,39.1
2019-01-18T06:58:31.742Z,39.2
2019-01-18T06:59:22.148Z,39.3
2019-01-18T07:00:11.970Z,39.4
2019-01-18T07:01:08.312Z,39.6
2019-01-18T07:01:51.123Z,39.8
2019-01-18T07:02:42.023Z,39.9
2019-01-18T07:03:32.347Z,40.1
2019-01-18T07:04:22.477Z,40.2
2019-01-18T07:06:47.625Z,40.5
2019-01-18T07:07:37.069Z,40.6
2019-01-18T07:08:27.997Z,42.2
2019-01-18T07:09:18.324Z,43.7
2019-01-18T07:10:08.107Z,44.3
2019-01-18T07:10:58.187Z,44.3
2019-01-18T07:11:47.117Z,44
2019-01-18T07:12:37.987Z,43.6
2019-01-18T07:13:28.304Z,43
2019-01-18T07:14:17.885Z,42.4
2019-01-18T07:15:09.122Z,41.7
2019-01-18T07:15:59.012Z,40.9
2019-01-18T07:16:48.544Z,40.3
2019-01-18T07:17:38.086Z,39.8
2019-01-18T07:18:29.434Z,39.4
2019-01-18T07:19:18.707Z,39.2
2019-01-18T07:20:08.502Z,39.1
2019-01-18T07:20:58.831Z,39.2
2019-01-18T07:21:49.168Z,39.3
2019-01-18T07:22:38.365Z,39.5
2019-01-18T07:23:30.586Z,39.6
2019-01-18T07:24:19.926Z,39.8
2019-01-18T07:25:09.140Z,40
2019-01-18T07:25:58.446Z,40.1
2019-01-18T07:26:49.231Z,40.3
2019-01-18T07:27:38.623Z,40.5
2019-01-18T07:28:29.363Z,41
2019-01-18T07:29:19.981Z,43.1
2019-01-18T07:30:09.793Z,44.1
2019-01-18T07:30:58.931Z,44.3
2019-01-18T07:31:49.306Z,43.9
2019-01-18T07:32:39.073Z,43.6
2019-01-18T07:33:29.688Z,43
2019-01-18T07:34:20.010Z,42.4
2019-01-18T07:35:11.398Z,41.8
2019-01-18T07:36:00.390Z,41
2019-01-18T07:36:49.914Z,40.3
2019-01-18T07:37:40.035Z,39.8
2019-01-18T07:38:29.457Z,39.3
2019-01-18T07:39:26.415Z,39.1
2019-01-18T07:40:10.725Z,39
2019-01-18T07:41:00.185Z,39
2019-01-18T07:41:49.752Z,39.1
2019-01-18T07:42:41.195Z,39.2
2019-01-18T07:43:30.982Z,39.3
2019-01-18T07:44:21.077Z,39.5
2019-01-18T07:45:10.802Z,39.7
2019-01-18T07:46:00.030Z,39.8
2019-01-18T07:46:50.695Z,40
2019-01-18T07:47:40.690Z,40.2
2019-01-18T07:48:30.747Z,40.3
2019-01-18T07:49:21.117Z,40.5
2019-01-18T07:50:10.635Z,41
2019-01-18T07:51:00.324Z,43
2019-01-18T07:51:50.994Z,43.9
2019-01-18T07:52:41.277Z,44.2
2019-01-18T07:53:31.077Z,44
2019-01-18T07:54:21.107Z,43.6
2019-01-18T07:55:10.614Z,43.1
2019-01-18T07:56:00.990Z,42.6
2019-01-18T07:56:51.044Z,41.9
2019-01-18T07:57:41.644Z,41.3
2019-01-18T07:58:31.380Z,40.5
2019-01-18T07:59:21.741Z,40
2019-01-18T08:00:11.821Z,39.6
2019-01-18T08:01:03.549Z,39.4
2019-01-18T08:01:51.078Z,39.3
2019-01-18T08:02:41.976Z,39.3
2019-01-18T08:03:31.776Z,39.4
2019-01-18T08:04:21.299Z,39.6
2019-01-18T08:05:11.969Z,39.7
2019-01-18T08:06:01.639Z,39.9
2019-01-18T08:06:51.965Z,40
2019-01-18T08:07:41.221Z,40.1
2019-01-18T08:08:31.799Z,40.3
2019-01-18T08:09:22.476Z,40.4
2019-01-18T08:10:12.471Z,40.6
2019-01-18T08:11:02.835Z,40.8
2019-01-18T08:11:52.368Z,42.9
2019-01-18T08:12:41.860Z,43.9
2019-01-18T08:13:32.149Z,44.2
2019-01-18T08:14:22.533Z,43.9
2019-01-18T08:15:12.835Z,43.6
2019-01-18T08:16:03.168Z,43.1
2019-01-18T08:16:53.198Z,42.5
2019-01-18T08:17:43.328Z,41.9
2019-01-18T08:18:32.748Z,41.2
2019-01-18T08:19:23.118Z,40.5
2019-01-18T08:20:12.912Z,39.9
2019-01-18T08:21:03.532Z,39.6
2019-01-18T08:21:53.590Z,39.3
2019-01-18T08:22:43.080Z,39.2
2019-01-18T08:23:33.110Z,39.2
2019-01-18T08:24:23.426Z,39.3
2019-01-18T08:25:13.237Z,39.4
2019-01-18T08:26:02.987Z,39.6
2019-01-18T08:26:52.812Z,39.8
2019-01-18T08:27:43.425Z,39.9
2019-01-18T08:28:34.017Z,40.1
2019-01-18T08:29:23.802Z,40.3
2019-01-18T08:30:13.353Z,40.4
2019-01-18T08:31:04.182Z,40.6
2019-01-18T08:31:54.232Z,40.8
2019-01-18T08:32:43.780Z,41.6
2019-01-18T08:33:32.981Z,43.4
2019-01-18T08:34:23.097Z,44.3
2019-01-18T08:35:14.257Z,44.4
2019-01-18T08:36:04.039Z,44.2
2019-01-18T08:36:54.054Z,43.8
2019-01-18T08:37:44.643Z,43.3
2019-01-18T08:38:33.411Z,42.7
2019-01-18T08:39:24.476Z,42.1
2019-01-18T08:40:14.571Z,41.3
2019-01-18T08:41:04.941Z,40.7
2019-01-18T08:41:54.137Z,40.2
2019-01-18T08:42:44.435Z,39.8
2019-01-18T08:43:33.945Z,39.6
2019-01-18T08:44:24.267Z,39.6
2019-01-18T08:45:14.421Z,39.7
2019-01-18T08:46:03.354Z,39.8
2019-01-18T08:46:54.536Z,40
2019-01-18T08:47:44.836Z,40.1
2019-01-18T08:48:35.171Z,40.4
2019-01-18T08:49:24.463Z,40.5
2019-01-18T08:50:15.281Z,40.7
2019-01-18T08:51:06.346Z,40.8
2019-01-18T08:51:54.041Z,41.5
2019-01-18T08:52:45.652Z,43.3
2019-01-18T08:53:34.681Z,44.1
2019-01-18T08:54:25.795Z,44.1
2019-01-18T08:55:15.306Z,43.9
2019-01-18T08:56:05.365Z,43.4
2019-01-18T08:56:55.653Z,42.9
2019-01-18T08:57:45.228Z,42.3
2019-01-18T08:58:35.031Z,41.7
2019-01-18T08:59:25.045Z,40.9
2019-01-18T09:00:15.113Z,40.3
2019-01-18T09:01:05.158Z,39.9
2019-01-18T09:01:56.337Z,39.6
2019-01-18T09:02:45.513Z,39.4
2019-01-18T09:03:35.858Z,39.4
2019-01-18T09:04:25.347Z,39.4
2019-01-18T09:05:17.313Z,39.5
2019-01-18T09:06:06.082Z,39.7
2019-01-18T09:06:55.890Z,39.8
2019-01-18T09:07:45.850Z,40
2019-01-18T09:08:35.947Z,40.2
2019-01-18T09:09:26.027Z,40.4
2019-01-18T09:10:16.313Z,40.5
2019-01-18T09:11:05.830Z,40.7
2019-01-18T09:11:56.159Z,40.9
2019-01-18T09:12:47.032Z,41
2019-01-18T09:13:37.363Z,42
2019-01-18T09:14:29.127Z,43.8
2019-01-18T09:15:16.377Z,44.6
2019-01-18T09:16:06.411Z,44.8
2019-01-18T09:16:55.909Z,44.5
2019-01-18T09:17:46.556Z,44.1
2019-01-18T09:18:38.452Z,43.6
2019-01-18T09:19:26.655Z,42.9
2019-01-18T09:20:16.459Z,42.3
2019-01-18T09:21:07.339Z,41.6
2019-01-18T09:21:57.666Z,40.9
2019-01-18T09:22:47.163Z,40.4
2019-01-18T09:23:36.944Z,40.1
2019-01-18T09:24:27.363Z,39.8
2019-01-18T09:25:17.340Z,39.7
2019-01-18T09:26:07.419Z,39.8
2019-01-18T09:26:57.713Z,39.9
2019-01-18T09:27:47.246Z,40
2019-01-18T09:28:36.721Z,40.2
2019-01-18T09:29:27.956Z,40.4
2019-01-18T09:30:17.383Z,40.6
2019-01-18T09:31:08.290Z,40.8
2019-01-18T09:31:58.088Z,40.9
2019-01-18T09:32:47.839Z,42.6
2019-01-18T09:33:38.189Z,43.9
2019-01-18T09:34:28.541Z,44.5
2019-01-18T09:35:18.031Z,44.4
2019-01-18T09:36:08.065Z,44.1
2019-01-18T09:36:58.096Z,43.6
2019-01-18T09:37:48.788Z,43
2019-01-18T09:38:38.581Z,42.4
2019-01-18T09:39:28.307Z,41.8
2019-01-18T09:40:19.263Z,41
2019-01-18T09:41:07.587Z,40.4
2019-01-18T09:41:59.030Z,39.9
2019-01-18T09:42:48.321Z,39.6
2019-01-18T09:43:38.597Z,39.4
2019-01-18T09:44:28.960Z,39.4
2019-01-18T09:45:19.541Z,39.5
2019-01-18T09:46:08.490Z,39.7
2019-01-18T09:46:58.262Z,39.8
2019-01-18T09:47:49.165Z,40
2019-01-18T09:48:38.382Z,40.2
2019-01-18T09:49:29.278Z,40.4
2019-01-18T09:50:18.820Z,40.5
2019-01-18T09:51:09.627Z,40.7
2019-01-18T09:51:59.710Z,40.9
2019-01-18T09:52:49.219Z,41.1
2019-01-18T09:53:39.831Z,41.9
2019-01-18T09:54:29.074Z,43.7
2019-01-18T09:55:19.387Z,44.4
2019-01-18T09:56:09.180Z,44.6
2019-01-18T09:56:59.279Z,44.4
2019-01-18T09:57:49.434Z,44
2019-01-18T09:58:38.854Z,43.4
2019-01-18T09:59:28.961Z,42.9
2019-01-18T10:00:19.249Z,42.2
2019-01-18T10:01:11.044Z,41.5
2019-01-18T10:01:59.351Z,40.9
2019-01-18T10:02:49.434Z,40.4
2019-01-18T10:03:39.766Z,40.1
2019-01-18T10:04:29.534Z,39.9
2019-01-18T10:05:19.851Z,39.8
2019-01-18T10:07:47.799Z,40.1
2019-01-18T10:08:38.337Z,40.3
2019-01-18T10:09:28.441Z,40.6
2019-01-18T10:10:17.951Z,40.8
2019-01-18T10:11:07.466Z,40.9
2019-01-18T10:11:57.441Z,41.1
2019-01-18T10:12:47.831Z,41.3
2019-01-18T10:13:39.111Z,43.2
2019-01-18T10:14:28.178Z,44.4
2019-01-18T10:15:17.283Z,44.7
2019-01-18T10:16:08.440Z,44.5
2019-01-18T10:16:58.173Z,44.2
2019-01-18T10:17:48.690Z,43.7
2019-01-18T10:18:37.740Z,43.1
2019-01-18T10:19:28.788Z,42.4
2019-01-18T10:20:18.583Z,41.8
2019-01-18T10:21:09.002Z,41.1
2019-01-18T10:21:57.922Z,40.5
2019-01-18T10:22:47.724Z,40.1
2019-01-18T10:23:38.080Z,39.8
2019-01-18T10:24:30.108Z,39.6
2019-01-18T10:25:19.248Z,39.6
2019-01-18T10:26:09.020Z,39.8
2019-01-18T10:26:58.785Z,39.9
2019-01-18T10:27:48.830Z,40.1
2019-01-18T10:28:39.192Z,40.3
2019-01-18T10:29:35.663Z,40.4
2019-01-18T10:30:19.904Z,40.6
2019-01-18T10:31:09.674Z,40.8
2019-01-18T10:32:04.987Z,40.9
2019-01-18T10:32:49.767Z,41.1
2019-01-18T10:33:39.522Z,41.3
2019-01-18T10:34:30.442Z,41.4
2019-01-18T10:35:20.456Z,43.4
2019-01-18T10:36:08.852Z,44.5
2019-01-18T10:37:01.143Z,44.8
2019-01-18T10:37:50.170Z,44.6
2019-01-18T10:38:40.124Z,44.3
2019-01-18T10:39:30.704Z,43.9
2019-01-18T10:40:19.943Z,43.3
2019-01-18T10:41:10.572Z,42.7
2019-01-18T10:41:59.848Z,42
2019-01-18T10:42:50.438Z,41.3
2019-01-18T10:43:39.679Z,40.8
2019-01-18T10:44:30.619Z,40.4
2019-01-18T10:45:20.033Z,40.1
2019-01-18T10:46:10.098Z,40
2019-01-18T10:46:59.036Z,40.1
2019-01-18T10:47:49.941Z,40.1
2019-01-18T10:48:40.316Z,40.3
2019-01-18T10:49:31.167Z,40.5
2019-01-18T10:50:20.460Z,40.7
2019-01-18T10:51:11.046Z,40.8
2019-01-18T10:52:01.082Z,41
2019-01-18T10:52:50.328Z,41.2
2019-01-18T10:53:40.913Z,41.4
2019-01-18T10:54:31.234Z,41.5
2019-01-18T10:55:21.599Z,43.3
2019-01-18T10:56:11.113Z,44.4
2019-01-18T10:57:00.271Z,44.8
2019-01-18T10:57:51.513Z,44.6
2019-01-18T10:58:41.555Z,44.3
2019-01-18T10:59:31.857Z,43.8
2019-01-18T11:00:21.363Z,43.3
2019-01-18T11:01:11.730Z,42.7
2019-01-18T11:02:14.642Z,41.9
2019-01-18T11:02:51.180Z,41.1
2019-01-18T11:03:41.512Z,40.7
2019-01-18T11:04:31.577Z,40.3
2019-01-18T11:05:22.240Z,39.9
2019-01-18T11:06:11.997Z,39.8
2019-01-18T11:07:01.812Z,39.9
2019-01-18T11:07:51.277Z,39.9
2019-01-18T11:08:41.308Z,40.1
2019-01-18T11:09:31.922Z,40.2
2019-01-18T11:10:21.703Z,40.4
2019-01-18T11:11:11.289Z,40.6
2019-01-18T11:12:01.579Z,40.7
2019-01-18T11:12:52.390Z,40.9
2019-01-18T11:13:42.175Z,41.1
2019-01-18T11:14:32.542Z,41.3
2019-01-18T11:15:22.292Z,41.4
2019-01-18T11:16:12.125Z,43.1
2019-01-18T11:17:03.079Z,44.4
2019-01-18T11:17:53.046Z,44.9
2019-01-18T11:18:42.539Z,44.8
2019-01-18T11:19:32.332Z,44.5
2019-01-18T11:20:21.831Z,44.1
2019-01-18T11:21:13.254Z,43.6
2019-01-18T11:22:02.194Z,42.9
2019-01-18T11:22:52.829Z,42.3
2019-01-18T11:23:43.441Z,41.6
2019-01-18T11:24:33.231Z,41
2019-01-18T11:25:24.081Z,40.6
2019-01-18T11:26:13.109Z,40.3
2019-01-18T11:27:02.842Z,40.2
2019-01-18T11:27:53.159Z,40.2
2019-01-18T11:28:42.436Z,40.3
2019-01-18T11:29:33.308Z,40.4
2019-01-18T11:30:23.636Z,40.6
2019-01-18T11:31:13.698Z,40.8
2019-01-18T11:32:03.976Z,41.1
2019-01-18T11:32:53.218Z,41.3
2019-01-18T11:33:43.576Z,41.4
2019-01-18T11:34:32.771Z,42.6
2019-01-18T11:35:24.295Z,44.3
2019-01-18T11:36:13.435Z,44.9
2019-01-18T11:37:07.378Z,45
2019-01-18T11:37:53.300Z,44.6
2019-01-18T11:38:43.909Z,44.3
2019-01-18T11:39:34.001Z,43.7
2019-01-18T11:40:23.458Z,43.1
2019-01-18T11:41:14.082Z,42.4
2019-01-18T11:42:07.805Z,41.8
2019-01-18T11:42:54.318Z,41.1
2019-01-18T11:43:43.988Z,40.6
2019-01-18T11:44:34.357Z,40.3
2019-01-18T11:45:24.150Z,40.1
2019-01-18T11:46:13.316Z,40
2019-01-18T11:47:04.755Z,40.1
2019-01-18T11:47:54.574Z,40.3
2019-01-18T11:48:45.180Z,40.4
2019-01-18T11:49:34.975Z,40.6
2019-01-18T11:50:24.787Z,40.8
2019-01-18T11:51:14.782Z,41
2019-01-18T11:52:04.352Z,41.1
2019-01-18T11:52:54.053Z,41.4
2019-01-18T11:53:46.402Z,41.5
2019-01-18T11:54:35.293Z,41.7
2019-01-18T11:55:25.615Z,43.3
2019-01-18T11:56:15.728Z,44.5
2019-01-18T11:57:04.392Z,44.8
2019-01-18T11:57:55.292Z,44.6
2019-01-18T11:58:45.557Z,44.3
2019-01-18T11:59:35.894Z,43.8
2019-01-18T12:00:25.699Z,43.3
2019-01-18T12:01:15.466Z,42.6
2019-01-18T12:02:05.264Z,42
2019-01-18T12:02:55.639Z,41.4
2019-01-18T12:03:46.186Z,40.9
2019-01-18T12:04:35.741Z,40.5
2019-01-18T12:05:26.116Z,40.3
2019-01-18T12:07:47.064Z,40.3
2019-01-18T12:08:42.911Z,40.5
2019-01-18T12:09:27.997Z,40.7
2019-01-18T12:10:18.121Z,40.8
2019-01-18T12:11:08.710Z,41
2019-01-18T12:11:58.188Z,41.1
2019-01-18T12:12:47.671Z,41.3
2019-01-18T12:13:37.201Z,41.4
2019-01-18T12:14:28.698Z,41.9
2019-01-18T12:15:18.151Z,43.8
2019-01-18T12:16:07.654Z,44.7
2019-01-18T12:16:58.297Z,44.9
2019-01-18T12:17:48.328Z,44.6
2019-01-18T12:18:38.361Z,44.2
2019-01-18T12:19:28.143Z,43.7
2019-01-18T12:20:17.966Z,43.1
2019-01-18T12:21:07.718Z,42.4
2019-01-18T12:21:58.320Z,41.8
2019-01-18T12:22:49.225Z,41.1
2019-01-18T12:23:37.845Z,40.6
2019-01-18T12:24:28.780Z,40.2
2019-01-18T12:25:19.082Z,39.9
2019-01-18T12:26:08.915Z,39.9
2019-01-18T12:26:58.910Z,39.9
2019-01-18T12:27:48.172Z,40.1
2019-01-18T12:28:38.743Z,40.3
2019-01-18T12:29:30.675Z,40.4
2019-01-18T12:30:18.670Z,40.7
2019-01-18T12:31:10.034Z,40.9
2019-01-18T12:31:58.846Z,41.1
2019-01-18T12:32:49.111Z,41.3
2019-01-18T12:33:38.628Z,41.4
2019-01-18T12:34:29.308Z,41.6
2019-01-18T12:35:18.211Z,43.5
2019-01-18T12:36:08.808Z,44.6
2019-01-18T12:37:06.473Z,45.1
2019-01-18T12:37:48.943Z,44.9
2019-01-18T12:38:39.533Z,44.6
2019-01-18T12:39:30.340Z,44.3
2019-01-18T12:40:19.873Z,43.6
2019-01-18T12:41:09.085Z,43
2019-01-18T12:41:59.667Z,42.3
2019-01-18T12:42:49.457Z,41.6
2019-01-18T12:43:39.909Z,41.1
2019-01-18T12:44:30.693Z,40.7
2019-01-18T12:45:19.073Z,40.4
2019-01-18T12:46:09.407Z,40.4
2019-01-18T12:47:00.307Z,40.4
2019-01-18T12:47:50.661Z,40.5
2019-01-18T12:48:40.125Z,40.6
2019-01-18T12:49:30.498Z,40.8
2019-01-18T12:50:21.397Z,41
2019-01-18T12:51:12.084Z,41.2
2019-01-18T12:52:00.900Z,41.4
2019-01-18T12:52:50.412Z,41.5
2019-01-18T12:53:41.050Z,41.7
2019-01-18T12:54:31.390Z,42.6
2019-01-18T12:55:21.457Z,44.3
2019-01-18T12:56:11.195Z,44.8
2019-01-18T12:57:01.242Z,44.8
2019-01-18T12:57:51.631Z,44.4
2019-01-18T12:58:40.554Z,43.9
2019-01-18T12:59:31.494Z,43.4
2019-01-18T13:00:21.057Z,42.8
2019-01-18T13:01:11.542Z,42.2
2019-01-18T13:02:01.661Z,41.5
2019-01-18T13:02:51.661Z,40.9
2019-01-18T13:03:41.711Z,40.4
2019-01-18T13:04:31.278Z,40.2
2019-01-18T13:05:21.146Z,40.1
2019-01-18T13:06:11.321Z,40.1
2019-01-18T13:07:01.462Z,40.2
2019-01-18T13:07:50.946Z,40.3
2019-01-18T13:08:42.558Z,40.5
2019-01-18T13:09:32.375Z,40.8
2019-01-18T13:10:21.721Z,40.9
2019-01-18T13:11:11.728Z,41.1
2019-01-18T13:12:02.893Z,41.3
2019-01-18T13:12:52.166Z,41.6
2019-01-18T13:13:40.762Z,43.1
2019-01-18T13:14:31.663Z,44.4
2019-01-18T13:15:22.261Z,45.1
2019-01-18T13:16:12.108Z,45.1
2019-01-18T13:17:03.282Z,44.8
2019-01-18T13:17:52.409Z,44.3
2019-01-18T13:18:42.766Z,43.8
2019-01-18T13:19:32.855Z,43.2
2019-01-18T13:20:22.329Z,42.6
2019-01-18T13:21:12.126Z,41.9
2019-01-18T13:22:01.863Z,41.3
2019-01-18T13:22:52.543Z,40.8
2019-01-18T13:23:42.812Z,40.4
2019-01-18T13:24:32.641Z,40.3
2019-01-18T13:25:22.439Z,40.3
2019-01-18T13:26:13.360Z,40.4
2019-01-18T13:27:02.563Z,40.6
2019-01-18T13:27:53.092Z,39.8
2019-01-18T13:28:43.172Z,37.4
2019-01-18T13:29:33.245Z,35.2
2019-01-18T13:30:24.175Z,33.4
2019-01-18T13:31:13.317Z,31.8
2019-01-18T13:32:03.964Z,30.6
2019-01-18T13:32:53.759Z,34.4
2019-01-18T13:33:43.237Z,38.2
2019-01-18T13:34:33.335Z,40.2
2019-01-18T13:35:23.257Z,41.3
2019-01-18T13:36:13.415Z,41.9
2019-01-18T13:37:03.846Z,42.2
2019-01-18T13:37:54.357Z,42.3
2019-01-18T13:38:43.035Z,41.9
2019-01-18T13:39:33.999Z,41.3
2019-01-18T13:40:23.550Z,40.3
2019-01-18T13:41:13.553Z,39
2019-01-18T13:42:05.770Z,37.6